sensor_id;sensor_type;location;lat;lon;timestamp;temperature;humidity
19880;DHT22;10102;50.828;4.416;2023-12-14T00:00:32;11.20;99.90
19880;DHT22;10102;50.828;4.416;2023-12-14T00:02:58;11.40;99.90
19880;DHT22;10102;50.828;4.416;2023-12-14T00:05:24;11.40;99.90
19880;DHT22;10102;50.828;4.416;2023-12-14T00:07:50;11.20;99.90
19880;DHT22;10102;50.828;4.416;2023-12-14T00:10:15;11.30;99.90
19880;DHT22;10102;50.828;4.416;2023-12-14T00:12:44;11.40;99.90
19880;DHT22;10102;50.828;4.416;2023-12-14T00:15:09;11.40;99.90
19880;DHT22;10102;50.828;4.416;2023-12-14T00:17:35;11.20;99.90
19880;DHT22;10102;50.828;4.416;2023-12-14T00:20:01;11.30;99.90
19880;DHT22;10102;50.828;4.416;2023-12-14T00:22:28;11.30;99.90
19880;DHT22;10102;50.828;4.416;2023-12-14T00:24:53;11.30;99.90
19880;DHT22;10102;50.828;4.416;2023-12-14T00:27:20;11.20;99.90
19880;DHT22;10102;50.828;4.416;2023-12-14T00:29:47;11.30;99.90
19880;DHT22;10102;50.828;4.416;2023-12-14T00:32:12;11.40;99.90
19880;DHT22;10102;50.828;4.416;2023-12-14T00:34:38;11.40;99.90
19880;DHT22;10102;50.828;4.416;2023-12-14T00:37:04;11.40;99.90
19880;DHT22;10102;50.828;4.416;2023-12-14T00:39:30;11.50;99.90
19880;DHT22;10102;50.828;4.416;2023-12-14T00:41:56;11.50;99.90
19880;DHT22;10102;50.828;4.416;2023-12-14T00:44:21;11.40;99.90
19880;DHT22;10102;50.828;4.416;2023-12-14T00:46:47;11.50;99.90
19880;DHT22;10102;50.828;4.416;2023-12-14T00:49:12;11.40;99.90
19880;DHT22;10102;50.828;4.416;2023-12-14T00:51:38;11.40;99.90
19880;DHT22;10102;50.828;4.416;2023-12-14T00:54:04;11.40;99.90
19880;DHT22;10102;50.828;4.416;2023-12-14T00:56:30;11.40;99.90
19880;DHT22;10102;50.828;4.416;2023-12-14T00:58:55;11.40;99.90
19880;DHT22;10102;50.828;4.416;2023-12-14T01:01:21;11.50;99.90
19880;DHT22;10102;50.828;4.416;2023-12-14T01:03:47;11.50;99.90
19880;DHT22;10102;50.828;4.416;2023-12-14T01:06:12;11.40;99.90
19880;DHT22;10102;50.828;4.416;2023-12-14T01:08:38;11.40;99.90
19880;DHT22;10102;50.828;4.416;2023-12-14T01:11:04;11.30;99.90
19880;DHT22;10102;50.828;4.416;2023-12-14T01:13:29;11.20;99.90
19880;DHT22;10102;50.828;4.416;2023-12-14T01:15:55;11.30;99.90
19880;DHT22;10102;50.828;4.416;2023-12-14T01:18:22;11.30;99.90
19880;DHT22;10102;50.828;4.416;2023-12-14T01:20:47;11.40;99.90
19880;DHT22;10102;50.828;4.416;2023-12-14T01:23:13;11.30;99.90
19880;DHT22;10102;50.828;4.416;2023-12-14T01:25:39;11.30;99.90
19880;DHT22;10102;50.828;4.416;2023-12-14T01:28:05;11.40;99.90
19880;DHT22;10102;50.828;4.416;2023-12-14T01:30:30;11.40;99.90
19880;DHT22;10102;50.828;4.416;2023-12-14T01:32:56;11.40;99.90
19880;DHT22;10102;50.828;4.416;2023-12-14T01:35:22;11.80;99.90
19880;DHT22;10102;50.828;4.416;2023-12-14T01:37:48;11.40;99.90
19880;DHT22;10102;50.828;4.416;2023-12-14T01:40:13;11.50;99.90
19880;DHT22;10102;50.828;4.416;2023-12-14T01:42:39;11.40;99.90
19880;DHT22;10102;50.828;4.416;2023-12-14T01:45:05;11.30;99.90
19880;DHT22;10102;50.828;4.416;2023-12-14T01:47:31;11.50;99.90
19880;DHT22;10102;50.828;4.416;2023-12-14T01:49:57;11.30;99.90
19880;DHT22;10102;50.828;4.416;2023-12-14T01:52:23;11.30;99.90
19880;DHT22;10102;50.828;4.416;2023-12-14T01:54:48;11.30;99.90
19880;DHT22;10102;50.828;4.416;2023-12-14T01:57:14;11.20;99.90
19880;DHT22;10102;50.828;4.416;2023-12-14T01:59:40;11.30;99.90
19880;DHT22;10102;50.828;4.416;2023-12-14T02:02:06;11.10;99.90
19880;DHT22;10102;50.828;4.416;2023-12-14T02:04:32;11.20;99.90
19880;DHT22;10102;50.828;4.416;2023-12-14T02:06:58;11.10;99.90
19880;DHT22;10102;50.828;4.416;2023-12-14T02:09:24;11.10;99.90
19880;DHT22;10102;50.828;4.416;2023-12-14T02:14:16;11.10;99.90
19880;DHT22;10102;50.828;4.416;2023-12-14T02:16:42;11.00;99.90
19880;DHT22;10102;50.828;4.416;2023-12-14T02:19:08;11.10;99.90
19880;DHT22;10102;50.828;4.416;2023-12-14T02:21:33;10.80;99.90
19880;DHT22;10102;50.828;4.416;2023-12-14T02:23:59;10.80;99.90
19880;DHT22;10102;50.828;4.416;2023-12-14T02:26:25;10.80;99.90
19880;DHT22;10102;50.828;4.416;2023-12-14T02:31:18;10.80;99.90
19880;DHT22;10102;50.828;4.416;2023-12-14T02:33:44;10.70;99.90
19880;DHT22;10102;50.828;4.416;2023-12-14T02:36:10;10.60;99.90
19880;DHT22;10102;50.828;4.416;2023-12-14T02:38:35;10.90;99.90
19880;DHT22;10102;50.828;4.416;2023-12-14T02:41:01;10.80;99.90
19880;DHT22;10102;50.828;4.416;2023-12-14T02:43:27;10.60;99.90
19880;DHT22;10102;50.828;4.416;2023-12-14T02:45:52;10.60;99.90
19880;DHT22;10102;50.828;4.416;2023-12-14T02:48:18;10.60;99.90
19880;DHT22;10102;50.828;4.416;2023-12-14T02:53:10;10.70;99.90
19880;DHT22;10102;50.828;4.416;2023-12-14T02:55:35;10.50;99.90
19880;DHT22;10102;50.828;4.416;2023-12-14T02:58:01;10.60;99.90
19880;DHT22;10102;50.828;4.416;2023-12-14T03:00:27;10.60;99.90
19880;DHT22;10102;50.828;4.416;2023-12-14T03:02:52;10.60;99.90
19880;DHT22;10102;50.828;4.416;2023-12-14T03:07:44;10.30;99.90
19880;DHT22;10102;50.828;4.416;2023-12-14T03:10:10;10.50;99.90
19880;DHT22;10102;50.828;4.416;2023-12-14T03:12:38;10.50;99.90
19880;DHT22;10102;50.828;4.416;2023-12-14T03:15:04;10.50;99.90
19880;DHT22;10102;50.828;4.416;2023-12-14T03:17:30;10.30;99.90
19880;DHT22;10102;50.828;4.416;2023-12-14T03:19:56;10.30;99.90
19880;DHT22;10102;50.828;4.416;2023-12-14T03:22:22;10.50;99.90
19880;DHT22;10102;50.828;4.416;2023-12-14T03:24:47;10.40;99.90
19880;DHT22;10102;50.828;4.416;2023-12-14T03:27:13;10.20;99.90
19880;DHT22;10102;50.828;4.416;2023-12-14T03:29:39;10.30;99.90
19880;DHT22;10102;50.828;4.416;2023-12-14T03:32:05;10.30;99.90
19880;DHT22;10102;50.828;4.416;2023-12-14T03:34:31;10.40;99.90
19880;DHT22;10102;50.828;4.416;2023-12-14T03:36:57;10.20;99.90
19880;DHT22;10102;50.828;4.416;2023-12-14T03:39:22;10.30;99.90
19880;DHT22;10102;50.828;4.416;2023-12-14T03:41:48;10.40;99.90
19880;DHT22;10102;50.828;4.416;2023-12-14T03:44:14;10.20;99.90
19880;DHT22;10102;50.828;4.416;2023-12-14T03:46:40;10.20;99.90
19880;DHT22;10102;50.828;4.416;2023-12-14T03:49:05;10.20;99.90
19880;DHT22;10102;50.828;4.416;2023-12-14T03:51:31;10.20;99.90
19880;DHT22;10102;50.828;4.416;2023-12-14T03:53:59;9.70;99.90
19880;DHT22;10102;50.828;4.416;2023-12-14T03:56:25;10.10;99.90
19880;DHT22;10102;50.828;4.416;2023-12-14T03:58:51;10.10;99.90
19880;DHT22;10102;50.828;4.416;2023-12-14T04:01:20;10.10;99.90
19880;DHT22;10102;50.828;4.416;2023-12-14T04:03:47;9.90;99.90
19880;DHT22;10102;50.828;4.416;2023-12-14T04:06:13;9.80;99.90
19880;DHT22;10102;50.828;4.416;2023-12-14T04:08:39;9.70;99.90
19880;DHT22;10102;50.828;4.416;2023-12-14T04:11:05;9.70;99.90
19880;DHT22;10102;50.828;4.416;2023-12-14T04:18:24;9.60;99.90
19880;DHT22;10102;50.828;4.416;2023-12-14T04:20:49;9.60;99.90
19880;DHT22;10102;50.828;4.416;2023-12-14T04:23:15;9.60;99.90
19880;DHT22;10102;50.828;4.416;2023-12-14T04:25:41;9.30;99.90
19880;DHT22;10102;50.828;4.416;2023-12-14T04:28:12;9.60;99.90
19880;DHT22;10102;50.828;4.416;2023-12-14T04:30:41;9.50;99.90
19880;DHT22;10102;50.828;4.416;2023-12-14T04:33:08;9.50;99.90
19880;DHT22;10102;50.828;4.416;2023-12-14T04:35:33;9.40;99.90
19880;DHT22;10102;50.828;4.416;2023-12-14T04:38:03;9.50;99.90
19880;DHT22;10102;50.828;4.416;2023-12-14T04:40:30;10.00;99.90
19880;DHT22;10102;50.828;4.416;2023-12-14T04:42:57;9.40;99.90
19880;DHT22;10102;50.828;4.416;2023-12-14T04:45:22;9.50;99.90
19880;DHT22;10102;50.828;4.416;2023-12-14T04:47:48;9.70;99.90
19880;DHT22;10102;50.828;4.416;2023-12-14T04:50:14;9.60;99.90
19880;DHT22;10102;50.828;4.416;2023-12-14T04:52:41;9.60;99.90
19880;DHT22;10102;50.828;4.416;2023-12-14T04:55:08;9.60;99.90
19880;DHT22;10102;50.828;4.416;2023-12-14T04:57:34;9.50;99.90
19880;DHT22;10102;50.828;4.416;2023-12-14T05:02:26;9.50;99.90
19880;DHT22;10102;50.828;4.416;2023-12-14T05:09:43;9.40;99.90
19880;DHT22;10102;50.828;4.416;2023-12-14T05:12:09;9.40;99.90
19880;DHT22;10102;50.828;4.416;2023-12-14T05:14:35;9.50;99.90
19880;DHT22;10102;50.828;4.416;2023-12-14T05:17:00;9.50;99.90
19880;DHT22;10102;50.828;4.416;2023-12-14T05:19:26;9.60;99.90
19880;DHT22;10102;50.828;4.416;2023-12-14T05:21:52;9.70;99.90
19880;DHT22;10102;50.828;4.416;2023-12-14T05:24:19;9.50;99.90
19880;DHT22;10102;50.828;4.416;2023-12-14T05:26:45;9.60;99.90
19880;DHT22;10102;50.828;4.416;2023-12-14T05:29:11;10.10;99.90
19880;DHT22;10102;50.828;4.416;2023-12-14T05:31:36;9.70;99.90
19880;DHT22;10102;50.828;4.416;2023-12-14T05:34:03;9.70;99.90
19880;DHT22;10102;50.828;4.416;2023-12-14T05:38:55;9.60;99.90
19880;DHT22;10102;50.828;4.416;2023-12-14T05:41:20;9.30;99.90
19880;DHT22;10102;50.828;4.416;2023-12-14T05:43:46;9.40;99.90
19880;DHT22;10102;50.828;4.416;2023-12-14T05:46:22;9.40;99.90
19880;DHT22;10102;50.828;4.416;2023-12-14T05:48:49;9.50;99.90
19880;DHT22;10102;50.828;4.416;2023-12-14T05:51:32;9.50;99.90
19880;DHT22;10102;50.828;4.416;2023-12-14T05:53:58;9.30;99.90
19880;DHT22;10102;50.828;4.416;2023-12-14T05:56:25;9.50;99.90
19880;DHT22;10102;50.828;4.416;2023-12-14T06:01:17;9.50;99.90
19880;DHT22;10102;50.828;4.416;2023-12-14T06:06:09;9.30;99.90
19880;DHT22;10102;50.828;4.416;2023-12-14T06:08:36;9.30;99.90
19880;DHT22;10102;50.828;4.416;2023-12-14T06:11:01;9.20;99.90
19880;DHT22;10102;50.828;4.416;2023-12-14T06:13:27;9.30;99.90
19880;DHT22;10102;50.828;4.416;2023-12-14T06:15:53;9.20;99.90
19880;DHT22;10102;50.828;4.416;2023-12-14T06:18:18;9.30;99.90
19880;DHT22;10102;50.828;4.416;2023-12-14T06:20:45;9.70;99.90
19880;DHT22;10102;50.828;4.416;2023-12-14T06:23:10;8.80;99.90
19880;DHT22;10102;50.828;4.416;2023-12-14T06:28:02;9.40;99.90
19880;DHT22;10102;50.828;4.416;2023-12-14T06:30:28;9.30;99.90
19880;DHT22;10102;50.828;4.416;2023-12-14T06:35:21;9.10;99.90
19880;DHT22;10102;50.828;4.416;2023-12-14T06:37:47;9.10;99.90
19880;DHT22;10102;50.828;4.416;2023-12-14T06:40:13;9.10;99.90
19880;DHT22;10102;50.828;4.416;2023-12-14T06:42:39;9.00;99.90
19880;DHT22;10102;50.828;4.416;2023-12-14T06:45:05;9.00;99.90
19880;DHT22;10102;50.828;4.416;2023-12-14T06:47:31;9.00;99.90
19880;DHT22;10102;50.828;4.416;2023-12-14T06:49:57;9.10;99.90
19880;DHT22;10102;50.828;4.416;2023-12-14T06:52:23;9.00;99.90
19880;DHT22;10102;50.828;4.416;2023-12-14T06:54:49;9.00;99.90
19880;DHT22;10102;50.828;4.416;2023-12-14T06:57:14;9.00;99.90
19880;DHT22;10102;50.828;4.416;2023-12-14T06:59:40;8.60;99.90
19880;DHT22;10102;50.828;4.416;2023-12-14T07:02:09;9.00;99.90
19880;DHT22;10102;50.828;4.416;2023-12-14T07:04:35;9.00;99.90
19880;DHT22;10102;50.828;4.416;2023-12-14T07:07:00;8.60;99.90
19880;DHT22;10102;50.828;4.416;2023-12-14T07:09:26;9.10;99.90
19880;DHT22;10102;50.828;4.416;2023-12-14T07:11:52;9.20;99.90
19880;DHT22;10102;50.828;4.416;2023-12-14T07:14:18;8.90;99.90
19880;DHT22;10102;50.828;4.416;2023-12-14T07:16:44;9.20;99.90
19880;DHT22;10102;50.828;4.416;2023-12-14T07:21:36;9.10;99.90
19880;DHT22;10102;50.828;4.416;2023-12-14T07:24:02;8.90;99.90
19880;DHT22;10102;50.828;4.416;2023-12-14T07:26:28;8.80;99.90
19880;DHT22;10102;50.828;4.416;2023-12-14T07:28:54;8.80;99.90
19880;DHT22;10102;50.828;4.416;2023-12-14T07:31:21;8.80;99.90
19880;DHT22;10102;50.828;4.416;2023-12-14T07:38:39;8.80;99.90
19880;DHT22;10102;50.828;4.416;2023-12-14T07:41:05;8.70;99.90
19880;DHT22;10102;50.828;4.416;2023-12-14T07:43:30;8.70;99.90
19880;DHT22;10102;50.828;4.416;2023-12-14T07:45:57;8.70;99.90
19880;DHT22;10102;50.828;4.416;2023-12-14T07:48:23;8.70;99.90
19880;DHT22;10102;50.828;4.416;2023-12-14T07:50:49;8.70;99.90
19880;DHT22;10102;50.828;4.416;2023-12-14T07:53:14;8.90;99.90
19880;DHT22;10102;50.828;4.416;2023-12-14T07:55:40;9.00;99.90
19880;DHT22;10102;50.828;4.416;2023-12-14T07:58:06;8.90;99.90
19880;DHT22;10102;50.828;4.416;2023-12-14T08:02:58;9.00;99.90
19880;DHT22;10102;50.828;4.416;2023-12-14T08:05:24;9.10;99.90
19880;DHT22;10102;50.828;4.416;2023-12-14T08:07:50;9.20;99.90
19880;DHT22;10102;50.828;4.416;2023-12-14T08:10:18;9.10;99.90
19880;DHT22;10102;50.828;4.416;2023-12-14T08:12:45;9.10;99.90
19880;DHT22;10102;50.828;4.416;2023-12-14T08:15:13;9.10;99.90
19880;DHT22;10102;50.828;4.416;2023-12-14T08:17:38;9.20;99.90
19880;DHT22;10102;50.828;4.416;2023-12-14T08:20:04;9.30;99.90
19880;DHT22;10102;50.828;4.416;2023-12-14T08:25:00;9.20;99.90
19880;DHT22;10102;50.828;4.416;2023-12-14T08:27:26;9.10;99.90
19880;DHT22;10102;50.828;4.416;2023-12-14T08:29:51;9.40;99.90
19880;DHT22;10102;50.828;4.416;2023-12-14T08:32:17;9.40;99.90
19880;DHT22;10102;50.828;4.416;2023-12-14T08:37:09;9.40;99.90
19880;DHT22;10102;50.828;4.416;2023-12-14T08:39:35;9.30;99.90
19880;DHT22;10102;50.828;4.416;2023-12-14T08:44:26;9.40;99.90
19880;DHT22;10102;50.828;4.416;2023-12-14T08:46:52;9.50;99.90
19880;DHT22;10102;50.828;4.416;2023-12-14T08:49:18;9.30;99.90
19880;DHT22;10102;50.828;4.416;2023-12-14T08:51:43;9.60;99.90
19880;DHT22;10102;50.828;4.416;2023-12-14T08:54:09;9.30;99.90
19880;DHT22;10102;50.828;4.416;2023-12-14T08:56:35;9.30;99.90
19880;DHT22;10102;50.828;4.416;2023-12-14T08:59:07;9.30;99.90
19880;DHT22;10102;50.828;4.416;2023-12-14T09:01:33;9.00;99.90
19880;DHT22;10102;50.828;4.416;2023-12-14T09:03:58;9.10;99.90
19880;DHT22;10102;50.828;4.416;2023-12-14T09:06:24;9.10;99.90
19880;DHT22;10102;50.828;4.416;2023-12-14T09:08:50;9.70;99.90
19880;DHT22;10102;50.828;4.416;2023-12-14T09:11:16;9.70;99.90
19880;DHT22;10102;50.828;4.416;2023-12-14T09:13:42;9.60;99.90
19880;DHT22;10102;50.828;4.416;2023-12-14T09:16:08;9.40;99.90
19880;DHT22;10102;50.828;4.416;2023-12-14T09:18:34;9.90;99.90
19880;DHT22;10102;50.828;4.416;2023-12-14T09:20:59;9.80;99.90
19880;DHT22;10102;50.828;4.416;2023-12-14T09:23:25;10.10;99.90
19880;DHT22;10102;50.828;4.416;2023-12-14T09:25:51;10.00;99.90
19880;DHT22;10102;50.828;4.416;2023-12-14T09:28:17;10.20;99.90
19880;DHT22;10102;50.828;4.416;2023-12-14T09:30:43;10.30;99.90
19880;DHT22;10102;50.828;4.416;2023-12-14T09:33:10;10.30;99.90
19880;DHT22;10102;50.828;4.416;2023-12-14T09:35:35;10.30;99.90
19880;DHT22;10102;50.828;4.416;2023-12-14T09:38:03;10.20;99.90
19880;DHT22;10102;50.828;4.416;2023-12-14T09:40:29;10.00;99.90
19880;DHT22;10102;50.828;4.416;2023-12-14T09:42:55;9.90;99.90
19880;DHT22;10102;50.828;4.416;2023-12-14T09:45:26;9.30;99.90
19880;DHT22;10102;50.828;4.416;2023-12-14T09:47:53;9.80;99.90
19880;DHT22;10102;50.828;4.416;2023-12-14T09:50:20;9.80;99.90
19880;DHT22;10102;50.828;4.416;2023-12-14T09:52:46;9.60;99.90
19880;DHT22;10102;50.828;4.416;2023-12-14T09:55:15;9.80;99.90
19880;DHT22;10102;50.828;4.416;2023-12-14T09:57:40;9.80;99.90
19880;DHT22;10102;50.828;4.416;2023-12-14T10:00:07;10.00;99.90
19880;DHT22;10102;50.828;4.416;2023-12-14T10:02:36;9.60;99.90
19880;DHT22;10102;50.828;4.416;2023-12-14T10:05:02;9.60;99.90
19880;DHT22;10102;50.828;4.416;2023-12-14T10:07:30;9.70;99.90
19880;DHT22;10102;50.828;4.416;2023-12-14T10:10:09;9.90;99.90
19880;DHT22;10102;50.828;4.416;2023-12-14T10:12:51;10.00;99.90
19880;DHT22;10102;50.828;4.416;2023-12-14T10:15:18;9.60;99.90
19880;DHT22;10102;50.828;4.416;2023-12-14T10:20:10;10.10;99.90
19880;DHT22;10102;50.828;4.416;2023-12-14T10:22:40;10.10;99.90
19880;DHT22;10102;50.828;4.416;2023-12-14T10:25:07;10.30;99.90
19880;DHT22;10102;50.828;4.416;2023-12-14T10:27:37;10.20;99.90
19880;DHT22;10102;50.828;4.416;2023-12-14T10:30:09;10.40;99.90
19880;DHT22;10102;50.828;4.416;2023-12-14T10:32:38;10.30;99.90
19880;DHT22;10102;50.828;4.416;2023-12-14T10:35:06;10.30;99.90
19880;DHT22;10102;50.828;4.416;2023-12-14T10:37:32;10.30;99.90
19880;DHT22;10102;50.828;4.416;2023-12-14T10:40:04;10.30;99.90
19880;DHT22;10102;50.828;4.416;2023-12-14T10:42:32;10.40;99.90
19880;DHT22;10102;50.828;4.416;2023-12-14T10:45:02;10.40;99.90
19880;DHT22;10102;50.828;4.416;2023-12-14T10:47:29;10.20;99.90
19880;DHT22;10102;50.828;4.416;2023-12-14T10:49:55;10.20;99.90
19880;DHT22;10102;50.828;4.416;2023-12-14T10:52:23;10.20;99.90
19880;DHT22;10102;50.828;4.416;2023-12-14T10:54:58;10.20;99.90
19880;DHT22;10102;50.828;4.416;2023-12-14T10:57:25;10.30;99.90
19880;DHT22;10102;50.828;4.416;2023-12-14T10:59:58;10.30;99.90
19880;DHT22;10102;50.828;4.416;2023-12-14T11:02:24;10.40;99.90
19880;DHT22;10102;50.828;4.416;2023-12-14T11:05:00;10.30;99.90
19880;DHT22;10102;50.828;4.416;2023-12-14T11:10:13;10.60;99.90
19880;DHT22;10102;50.828;4.416;2023-12-14T11:15:24;10.70;99.90
19880;DHT22;10102;50.828;4.416;2023-12-14T11:25:56;10.20;99.90
19880;DHT22;10102;50.828;4.416;2023-12-14T11:28:22;10.40;99.90
19880;DHT22;10102;50.828;4.416;2023-12-14T11:30:48;10.30;99.90
19880;DHT22;10102;50.828;4.416;2023-12-14T11:33:14;10.30;99.90
19880;DHT22;10102;50.828;4.416;2023-12-14T11:35:40;10.40;99.90
19880;DHT22;10102;50.828;4.416;2023-12-14T11:38:07;10.70;99.90
19880;DHT22;10102;50.828;4.416;2023-12-14T11:40:39;10.60;99.90
19880;DHT22;10102;50.828;4.416;2023-12-14T11:43:05;10.50;99.90
19880;DHT22;10102;50.828;4.416;2023-12-14T11:45:35;10.50;99.90
19880;DHT22;10102;50.828;4.416;2023-12-14T11:48:02;10.20;99.90
19880;DHT22;10102;50.828;4.416;2023-12-14T11:50:34;10.10;99.90
19880;DHT22;10102;50.828;4.416;2023-12-14T11:53:01;10.20;99.90
19880;DHT22;10102;50.828;4.416;2023-12-14T11:55:29;10.10;99.90
19880;DHT22;10102;50.828;4.416;2023-12-14T11:57:56;10.30;99.90
19880;DHT22;10102;50.828;4.416;2023-12-14T12:00:27;10.10;99.90
19880;DHT22;10102;50.828;4.416;2023-12-14T12:03:17;10.10;99.90
19880;DHT22;10102;50.828;4.416;2023-12-14T12:05:44;9.90;99.90
19880;DHT22;10102;50.828;4.416;2023-12-14T12:08:12;10.10;99.90
19880;DHT22;10102;50.828;4.416;2023-12-14T12:10:42;10.20;99.90
19880;DHT22;10102;50.828;4.416;2023-12-14T12:13:16;9.90;99.90
19880;DHT22;10102;50.828;4.416;2023-12-14T12:15:42;10.10;99.90
19880;DHT22;10102;50.828;4.416;2023-12-14T12:18:09;10.20;99.90
19880;DHT22;10102;50.828;4.416;2023-12-14T12:20:35;9.80;99.90
19880;DHT22;10102;50.828;4.416;2023-12-14T12:23:01;10.00;99.90
19880;DHT22;10102;50.828;4.416;2023-12-14T12:25:28;9.80;99.90
19880;DHT22;10102;50.828;4.416;2023-12-14T12:27:54;10.00;99.90
19880;DHT22;10102;50.828;4.416;2023-12-14T12:30:21;9.90;99.90
19880;DHT22;10102;50.828;4.416;2023-12-14T12:32:47;9.90;99.90
19880;DHT22;10102;50.828;4.416;2023-12-14T12:35:12;9.60;99.90
19880;DHT22;10102;50.828;4.416;2023-12-14T12:37:39;9.50;99.90
19880;DHT22;10102;50.828;4.416;2023-12-14T12:40:05;9.30;99.90
19880;DHT22;10102;50.828;4.416;2023-12-14T12:42:32;9.30;99.90
19880;DHT22;10102;50.828;4.416;2023-12-14T12:44:58;9.30;99.90
19880;DHT22;10102;50.828;4.416;2023-12-14T12:47:23;9.40;99.90
19880;DHT22;10102;50.828;4.416;2023-12-14T12:49:49;9.40;99.90
19880;DHT22;10102;50.828;4.416;2023-12-14T12:52:15;9.50;99.90
19880;DHT22;10102;50.828;4.416;2023-12-14T12:54:40;9.40;99.90
19880;DHT22;10102;50.828;4.416;2023-12-14T12:57:06;9.40;99.90
19880;DHT22;10102;50.828;4.416;2023-12-14T12:59:32;9.50;99.90
19880;DHT22;10102;50.828;4.416;2023-12-14T13:01:58;9.40;99.90
19880;DHT22;10102;50.828;4.416;2023-12-14T13:04:23;9.10;99.90
19880;DHT22;10102;50.828;4.416;2023-12-14T13:06:51;9.60;99.90
19880;DHT22;10102;50.828;4.416;2023-12-14T13:09:18;9.60;99.90
19880;DHT22;10102;50.828;4.416;2023-12-14T13:11:46;9.80;99.90
19880;DHT22;10102;50.828;4.416;2023-12-14T13:14:11;9.60;99.90
19880;DHT22;10102;50.828;4.416;2023-12-14T13:16:38;9.70;99.90
19880;DHT22;10102;50.828;4.416;2023-12-14T13:19:04;9.60;99.90
19880;DHT22;10102;50.828;4.416;2023-12-14T13:21:32;9.60;99.90
19880;DHT22;10102;50.828;4.416;2023-12-14T13:23:59;9.10;99.90
19880;DHT22;10102;50.828;4.416;2023-12-14T13:26:25;9.60;99.90
19880;DHT22;10102;50.828;4.416;2023-12-14T13:28:54;9.60;99.90
19880;DHT22;10102;50.828;4.416;2023-12-14T13:31:20;9.60;99.90
19880;DHT22;10102;50.828;4.416;2023-12-14T13:33:47;9.70;99.90
19880;DHT22;10102;50.828;4.416;2023-12-14T13:36:13;9.60;99.90
19880;DHT22;10102;50.828;4.416;2023-12-14T13:38:40;9.50;99.90
19880;DHT22;10102;50.828;4.416;2023-12-14T13:41:09;9.30;99.90
19880;DHT22;10102;50.828;4.416;2023-12-14T13:43:35;9.40;99.90
19880;DHT22;10102;50.828;4.416;2023-12-14T13:46:01;9.60;99.90
19880;DHT22;10102;50.828;4.416;2023-12-14T13:48:27;9.50;99.90
19880;DHT22;10102;50.828;4.416;2023-12-14T13:55:46;9.70;99.90
19880;DHT22;10102;50.828;4.416;2023-12-14T13:58:14;9.80;99.90
19880;DHT22;10102;50.828;4.416;2023-12-14T14:00:40;9.70;99.90
19880;DHT22;10102;50.828;4.416;2023-12-14T14:03:06;9.70;99.90
19880;DHT22;10102;50.828;4.416;2023-12-14T14:05:32;9.70;99.90
19880;DHT22;10102;50.828;4.416;2023-12-14T14:07:58;9.60;99.90
19880;DHT22;10102;50.828;4.416;2023-12-14T14:10:24;9.80;99.90
19880;DHT22;10102;50.828;4.416;2023-12-14T14:12:50;10.00;99.90
19880;DHT22;10102;50.828;4.416;2023-12-14T14:15:16;9.90;99.90
19880;DHT22;10102;50.828;4.416;2023-12-14T14:17:42;10.10;99.90
19880;DHT22;10102;50.828;4.416;2023-12-14T14:20:08;9.70;99.90
19880;DHT22;10102;50.828;4.416;2023-12-14T14:22:36;10.00;99.90
19880;DHT22;10102;50.828;4.416;2023-12-14T14:25:04;9.90;99.90
19880;DHT22;10102;50.828;4.416;2023-12-14T14:27:32;10.00;99.90
19880;DHT22;10102;50.828;4.416;2023-12-14T14:29:58;10.10;99.90
19880;DHT22;10102;50.828;4.416;2023-12-14T14:32:24;10.30;99.90
19880;DHT22;10102;50.828;4.416;2023-12-14T14:34:50;9.50;99.90
19880;DHT22;10102;50.828;4.416;2023-12-14T14:37:16;9.80;99.90
19880;DHT22;10102;50.828;4.416;2023-12-14T14:39:42;9.80;99.90
19880;DHT22;10102;50.828;4.416;2023-12-14T14:42:09;9.90;99.90
19880;DHT22;10102;50.828;4.416;2023-12-14T14:44:35;9.60;99.90
19880;DHT22;10102;50.828;4.416;2023-12-14T14:47:01;10.00;99.90
19880;DHT22;10102;50.828;4.416;2023-12-14T14:49:27;10.10;99.90
19880;DHT22;10102;50.828;4.416;2023-12-14T14:51:53;10.20;99.90
19880;DHT22;10102;50.828;4.416;2023-12-14T14:54:19;10.10;99.90
19880;DHT22;10102;50.828;4.416;2023-12-14T14:56:44;10.10;99.90
19880;DHT22;10102;50.828;4.416;2023-12-14T14:59:10;10.10;99.90
19880;DHT22;10102;50.828;4.416;2023-12-14T15:01:37;9.90;99.90
19880;DHT22;10102;50.828;4.416;2023-12-14T15:04:03;9.90;99.90
19880;DHT22;10102;50.828;4.416;2023-12-14T15:06:29;10.30;99.90
19880;DHT22;10102;50.828;4.416;2023-12-14T15:08:54;9.70;99.90
19880;DHT22;10102;50.828;4.416;2023-12-14T15:11:20;9.70;99.90
19880;DHT22;10102;50.828;4.416;2023-12-14T15:13:46;9.70;99.90
19880;DHT22;10102;50.828;4.416;2023-12-14T15:16:11;9.70;99.90
19880;DHT22;10102;50.828;4.416;2023-12-14T15:18:38;9.70;99.90
19880;DHT22;10102;50.828;4.416;2023-12-14T15:21:12;9.40;99.90
19880;DHT22;10102;50.828;4.416;2023-12-14T15:23:38;9.30;99.90
19880;DHT22;10102;50.828;4.416;2023-12-14T15:26:05;9.40;99.90
19880;DHT22;10102;50.828;4.416;2023-12-14T15:28:33;9.50;99.90
19880;DHT22;10102;50.828;4.416;2023-12-14T15:30:59;9.50;99.90
19880;DHT22;10102;50.828;4.416;2023-12-14T15:33:24;9.60;99.90
19880;DHT22;10102;50.828;4.416;2023-12-14T15:35:51;9.60;99.90
19880;DHT22;10102;50.828;4.416;2023-12-14T15:38:17;9.60;99.90
19880;DHT22;10102;50.828;4.416;2023-12-14T15:40:43;9.60;99.90
19880;DHT22;10102;50.828;4.416;2023-12-14T15:43:09;9.70;99.90
19880;DHT22;10102;50.828;4.416;2023-12-14T15:45:34;9.60;99.90
19880;DHT22;10102;50.828;4.416;2023-12-14T15:48:00;9.70;99.90
19880;DHT22;10102;50.828;4.416;2023-12-14T15:50:26;9.80;99.90
19880;DHT22;10102;50.828;4.416;2023-12-14T15:52:52;9.90;99.90
19880;DHT22;10102;50.828;4.416;2023-12-14T15:55:18;10.20;99.90
19880;DHT22;10102;50.828;4.416;2023-12-14T15:57:45;9.70;99.90
19880;DHT22;10102;50.828;4.416;2023-12-14T16:00:11;9.80;99.90
19880;DHT22;10102;50.828;4.416;2023-12-14T16:02:37;9.80;99.90
19880;DHT22;10102;50.828;4.416;2023-12-14T16:05:04;9.80;99.90
19880;DHT22;10102;50.828;4.416;2023-12-14T16:07:29;9.30;99.90
19880;DHT22;10102;50.828;4.416;2023-12-14T16:09:55;9.80;99.90
19880;DHT22;10102;50.828;4.416;2023-12-14T16:12:21;9.80;99.90
19880;DHT22;10102;50.828;4.416;2023-12-14T16:14:47;9.80;99.90
19880;DHT22;10102;50.828;4.416;2023-12-14T16:17:12;9.90;99.90
19880;DHT22;10102;50.828;4.416;2023-12-14T16:19:38;9.90;99.90
19880;DHT22;10102;50.828;4.416;2023-12-14T16:22:04;9.90;99.90
19880;DHT22;10102;50.828;4.416;2023-12-14T16:24:30;9.80;99.90
19880;DHT22;10102;50.828;4.416;2023-12-14T16:26:56;9.90;99.90
19880;DHT22;10102;50.828;4.416;2023-12-14T16:29:25;9.80;99.90
19880;DHT22;10102;50.828;4.416;2023-12-14T16:31:52;9.80;99.90
19880;DHT22;10102;50.828;4.416;2023-12-14T16:34:17;9.70;99.90
19880;DHT22;10102;50.828;4.416;2023-12-14T16:36:47;10.10;99.90
19880;DHT22;10102;50.828;4.416;2023-12-14T16:39:12;9.50;99.90
19880;DHT22;10102;50.828;4.416;2023-12-14T16:41:38;9.70;99.90
19880;DHT22;10102;50.828;4.416;2023-12-14T16:44:04;9.60;99.90
19880;DHT22;10102;50.828;4.416;2023-12-14T16:46:30;9.40;99.90